Time;durP1;ratioP1;P1;durP2;ratioP2;P2;SDS_P1;SDS_P2;PMS_P1;PMS_P2;Temp;Humidity;BMP_temperature;BMP_pressure;BME280_temperature;BME280_humidity;BME280_pressure;Samples;Min_cycle;Max_cycle;Signal;HPM_P1;HPM_P2
2022/07/13 00:02:05;;;;;;;1.95;1.52;;;;;;;28.81;43.11;97308.81;5073402;28;20028;-27
2022/07/13 00:04:31;;;;;;;1.85;1.55;;;;;;;28.76;43.23;97311.66;5073558;28;20613;-27
2022/07/13 00:06:57;;;;;;;2.15;1.50;;;;;;;28.84;42.82;97312.59;5073502;28;20060;-27
2022/07/13 00:09:22;;;;;;;1.80;1.38;;;;;;;28.77;43.06;97308.34;5071970;28;20125;-27
2022/07/13 00:11:48;;;;;;;2.08;1.48;;;;;;;28.73;43.09;97301.53;5073679;28;20375;-27
2022/07/13 00:14:13;;;;;;;1.48;1.38;;;;;;;28.78;42.97;97297.94;5073117;28;20493;-28
2022/07/13 00:16:39;;;;;;;1.55;1.40;;;;;;;28.68;43.07;97297.56;5073454;28;20028;-27
2022/07/13 00:19:04;;;;;;;2.78;1.63;;;;;;;28.74;42.82;97306.59;5073303;28;20032;-28
2022/07/13 00:21:30;;;;;;;2.53;1.50;;;;;;;28.69;43.03;97301.09;5073350;28;20029;-28
2022/07/13 00:23:56;;;;;;;3.92;1.45;;;;;;;28.67;43.05;97304.44;5073061;28;20111;-27
2022/07/13 00:26:21;;;;;;;1.73;1.50;;;;;;;28.76;42.76;97304.03;5072991;28;20051;-28
2022/07/13 00:28:46;;;;;;;2.38;1.48;;;;;;;28.66;43.20;97302.91;5073132;28;20026;-27
2022/07/13 00:31:12;;;;;;;1.98;1.65;;;;;;;28.50;43.28;97301.06;5073125;28;20379;-27
2022/07/13 00:33:37;;;;;;;1.50;1.40;;;;;;;28.69;42.99;97295.50;5073173;28;20025;-27
2022/07/13 00:36:03;;;;;;;1.40;1.30;;;;;;;28.68;43.04;97294.00;5073218;28;20048;-27
2022/07/13 00:38:28;;;;;;;2.47;1.63;;;;;;;28.69;42.88;97282.31;5072701;28;20133;-27
2022/07/13 00:40:54;;;;;;;1.45;1.33;;;;;;;28.64;43.01;97283.16;5073056;28;20040;-28
2022/07/13 00:43:19;;;;;;;2.85;1.38;;;;;;;28.70;42.75;97275.44;5072910;28;20027;-27
2022/07/13 00:45:45;;;;;;;3.88;1.45;;;;;;;28.63;42.82;97286.47;5072433;28;20592;-27
2022/07/13 00:48:10;;;;;;;2.30;1.40;;;;;;;28.66;42.64;97291.00;5072888;28;20081;-28
2022/07/13 00:50:37;;;;;;;1.90;1.38;;;;;;;28.64;42.71;97277.56;5072432;28;20063;-27
2022/07/13 00:53:04;;;;;;;3.08;1.50;;;;;;;28.74;42.50;97272.34;5072638;28;20035;-27
2022/07/13 00:55:31;;;;;;;2.28;1.50;;;;;;;28.70;42.53;97283.81;5072510;28;20032;-27
2022/07/13 00:57:58;;;;;;;1.65;1.45;;;;;;;28.69;42.46;97284.34;5072574;28;20124;-27
2022/07/13 01:00:23;;;;;;;2.22;1.50;;;;;;;28.58;42.37;97279.66;5072480;28;20036;-27
2022/07/13 01:02:49;;;;;;;1.83;1.58;;;;;;;28.64;42.51;97274.78;5072275;28;20033;-27
2022/07/13 01:05:15;;;;;;;2.10;1.40;;;;;;;28.68;42.52;97268.91;5072382;28;20489;-28
2022/07/13 01:07:41;;;;;;;1.45;1.33;;;;;;;28.63;42.67;97270.47;5070338;28;20052;-27
2022/07/13 01:10:09;;;;;;;1.80;1.30;;;;;;;28.66;42.50;97269.41;5072368;28;20036;-27
2022/07/13 01:12:36;;;;;;;3.28;1.58;;;;;;;28.56;42.68;97271.09;5072229;28;20028;-27
2022/07/13 01:15:03;;;;;;;4.03;1.58;;;;;;;28.60;42.54;97269.47;5072056;28;20028;-27
2022/07/13 01:17:30;;;;;;;1.35;1.25;;;;;;;28.61;42.67;97281.41;5072127;28;20039;-28
2022/07/13 01:19:57;;;;;;;3.08;1.70;;;;;;;28.62;42.80;97279.38;5072093;28;20482;-27
2022/07/13 01:22:32;;;;;;;2.25;1.48;;;;;;;28.71;42.59;97282.53;5072234;28;20474;-27
2022/07/13 01:24:58;;;;;;;2.05;1.50;;;;;;;28.62;42.85;97280.13;5072254;28;20099;-27
2022/07/13 01:27:24;;;;;;;2.00;1.80;;;;;;;28.63;42.87;97280.88;5071693;28;20028;-28
2022/07/13 01:29:51;;;;;;;3.35;1.80;;;;;;;28.54;43.22;97279.22;5072102;28;20020;-27
2022/07/13 01:32:17;;;;;;;4.35;1.70;;;;;;;28.53;43.43;97277.72;5072048;28;20036;-27
2022/07/13 01:34:42;;;;;;;1.80;1.45;;;;;;;28.52;43.35;97281.78;5071935;28;20021;-27
2022/07/13 01:37:09;;;;;;;1.75;1.50;;;;;;;28.54;43.65;97285.56;5071856;28;20519;-28
2022/07/13 01:39:35;;;;;;;1.98;1.58;;;;;;;28.59;43.45;97270.75;5071471;28;20028;-27
2022/07/13 01:42:00;;;;;;;2.13;1.33;;;;;;;28.55;43.56;97275.91;5071592;28;20040;-27
2022/07/13 01:44:26;;;;;;;2.22;1.63;;;;;;;28.58;43.49;97271.28;5071664;28;20505;-28
2022/07/13 01:46:51;;;;;;;1.50;1.40;;;;;;;28.54;43.64;97268.06;5071735;28;20029;-27
2022/07/13 01:49:17;;;;;;;2.40;1.50;;;;;;;28.63;43.66;97264.88;5071798;28;20016;-27
2022/07/13 01:51:42;;;;;;;2.20;1.77;;;;;;;28.59;43.46;97265.19;5071464;28;20526;-27
2022/07/13 01:54:08;;;;;;;1.92;1.55;;;;;;;28.62;43.69;97268.19;5071526;28;20122;-27
2022/07/13 01:56:33;;;;;;;2.63;1.33;;;;;;;28.65;43.75;97272.75;5071060;28;20024;-27
2022/07/13 01:59:00;;;;;;;2.70;1.40;;;;;;;28.59;43.53;97270.00;5071506;28;20025;-27
2022/07/13 02:01:25;;;;;;;1.73;1.48;;;;;;;28.64;43.69;97276.81;5071484;28;20103;-27
2022/07/13 02:03:50;;;;;;;1.85;1.38;;;;;;;28.65;43.71;97269.94;5071199;28;20486;-27
2022/07/13 02:06:16;;;;;;;1.52;1.40;;;;;;;28.58;43.82;97271.28;5071405;28;20024;-29
2022/07/13 02:08:41;;;;;;;2.50;1.60;;;;;;;28.53;44.04;97274.91;5067873;28;20076;-28
2022/07/13 02:11:07;;;;;;;2.03;1.63;;;;;;;28.61;43.48;97270.25;5070097;28;20036;-28
2022/07/13 02:13:32;;;;;;;3.33;1.45;;;;;;;28.64;43.48;97260.81;5071506;28;20028;-27
2022/07/13 02:15:58;;;;;;;1.83;1.48;;;;;;;28.66;43.29;97263.84;5071110;28;20048;-27
2022/07/13 02:18:24;;;;;;;1.65;1.55;;;;;;;28.48;43.69;97261.78;5070010;28;20035;-28
2022/07/13 02:20:50;;;;;;;2.13;1.50;;;;;;;28.58;43.40;97263.66;5071335;28;20036;-27
2022/07/13 02:23:15;;;;;;;1.50;1.40;;;;;;;28.56;43.43;97271.09;5071137;28;20032;-27
2022/07/13 02:25:41;;;;;;;1.92;1.33;;;;;;;28.51;43.94;97258.69;5071347;28;20036;-27
2022/07/13 02:28:06;;;;;;;1.92;1.45;;;;;;;28.58;43.29;97260.13;5071013;28;20031;-27
2022/07/13 02:30:33;;;;;;;2.42;1.60;;;;;;;28.57;43.40;97256.56;5071075;28;20017;-27
2022/07/13 02:32:59;;;;;;;2.08;1.55;;;;;;;28.62;43.52;97251.47;5071145;28;20028;-27
2022/07/13 02:35:25;;;;;;;4.80;1.60;;;;;;;28.60;43.28;97254.78;5071070;28;20039;-27
2022/07/13 02:37:50;;;;;;;1.73;1.35;;;;;;;28.58;43.60;97257.34;5071164;28;20090;-29
2022/07/13 02:40:16;;;;;;;1.52;1.30;;;;;;;28.57;43.35;97264.19;5085088;28;20081;-27
2022/07/13 02:42:41;;;;;;;1.98;1.52;;;;;;;28.65;43.16;97264.38;5093209;28;20024;-28
2022/07/13 02:45:07;;;;;;;2.67;1.60;;;;;;;28.55;43.32;97264.75;5093398;28;20107;-27
2022/07/13 02:47:33;;;;;;;2.13;1.70;;;;;;;28.55;43.13;97264.00;5093308;28;20036;-29
2022/07/13 02:49:59;;;;;;;1.70;1.42;;;;;;;28.59;42.94;97265.19;5093049;28;20024;-27
2022/07/13 02:52:24;;;;;;;1.70;1.50;;;;;;;28.55;42.98;97272.38;5093062;28;20527;-27
2022/07/13 02:54:50;;;;;;;3.35;1.42;;;;;;;28.57;43.14;97264.94;5093045;28;20056;-28
2022/07/13 02:57:15;;;;;;;1.77;1.50;;;;;;;28.61;43.03;97261.88;5092948;28;20032;-27
2022/07/13 02:59:41;;;;;;;1.83;1.52;;;;;;;28.64;42.98;97262.84;5093110;28;20465;-27
2022/07/13 03:02:07;;;;;;;2.47;1.50;;;;;;;28.60;42.92;97263.16;5093085;28;20393;-27
2022/07/13 03:04:33;;;;;;;4.18;1.80;;;;;;;28.66;42.80;97265.88;5092986;28;20028;-27
2022/07/13 03:06:59;;;;;;;1.83;1.70;;;;;;;28.70;42.64;97255.16;5092796;28;20097;-28
2022/07/13 03:09:25;;;;;;;1.85;1.50;;;;;;;28.69;42.55;97265.56;5096202;28;20446;-28
2022/07/13 03:11:51;;;;;;;1.95;1.63;;;;;;;28.68;42.67;97260.53;5096764;28;20076;-27
2022/07/13 03:14:17;;;;;;;2.83;1.70;;;;;;;28.67;42.50;97259.75;5096782;28;20048;-27
2022/07/13 03:16:43;;;;;;;2.05;1.70;;;;;;;28.65;42.54;97265.13;5096756;28;20027;-28
2022/07/13 03:19:08;;;;;;;2.25;1.60;;;;;;;28.63;42.50;97250.94;5096572;28;20040;-27
2022/07/13 03:21:35;;;;;;;1.70;1.60;;;;;;;28.62;42.37;97276.56;5096769;28;20077;-27
2022/07/13 03:24:00;;;;;;;2.65;2.00;;;;;;;28.69;42.20;97262.75;5096533;28;20028;-28
2022/07/13 03:26:26;;;;;;;1.83;1.67;;;;;;;28.71;42.16;97274.16;5096655;28;20091;-27
2022/07/13 03:28:51;;;;;;;2.13;1.63;;;;;;;28.69;42.12;97265.56;5095175;28;20020;-27
2022/07/13 03:31:17;;;;;;;2.95;1.90;;;;;;;28.67;41.77;97275.75;5096847;28;20020;-27
2022/07/13 03:33:43;;;;;;;1.85;1.50;;;;;;;28.66;42.09;97280.59;5096339;28;20032;-27
2022/07/13 03:36:09;;;;;;;1.85;1.70;;;;;;;28.71;41.67;97278.97;5096632;28;20032;-27
2022/07/13 03:38:35;;;;;;;1.85;1.30;;;;;;;28.68;41.95;97271.69;5096349;28;20462;-27
2022/07/13 03:41:01;;;;;;;1.73;1.63;;;;;;;28.65;41.77;97279.06;5096340;28;20024;-27
2022/07/13 03:43:26;;;;;;;2.95;1.70;;;;;;;28.67;41.59;97273.72;5096299;28;20034;-27
2022/07/13 03:45:55;;;;;;;2.38;1.73;;;;;;;28.64;41.54;97280.34;5096256;28;20035;-27
2022/07/13 03:48:20;;;;;;;1.80;1.55;;;;;;;28.61;41.52;97286.97;5096199;28;20024;-27
2022/07/13 03:50:47;;;;;;;1.75;1.60;;;;;;;28.62;41.19;97285.69;5096077;28;20362;-27
2022/07/13 03:53:14;;;;;;;2.45;1.50;;;;;;;28.61;41.59;97286.97;5096267;28;20099;-27
2022/07/13 03:55:40;;;;;;;2.28;1.75;;;;;;;28.60;41.09;97283.44;5096013;28;20023;-27
2022/07/13 03:58:06;;;;;;;2.58;1.73;;;;;;;28.63;41.00;97292.78;5096000;28;20103;-27
2022/07/13 04:00:32;;;;;;;1.90;1.67;;;;;;;28.56;41.10;97290.63;5096045;28;20550;-28
2022/07/13 04:02:58;;;;;;;1.65;1.40;;;;;;;28.58;40.96;97290.81;5095951;28;20031;-27
2022/07/13 04:05:24;;;;;;;1.80;1.70;;;;;;;28.57;41.22;97286.53;5095707;28;20474;-29
2022/07/13 04:07:50;;;;;;;1.73;1.60;;;;;;;28.63;40.50;97297.63;5095626;28;20493;-28
2022/07/13 04:10:19;;;;;;;2.35;1.80;;;;;;;28.58;40.73;97288.78;5095883;28;20022;-27
2022/07/13 04:12:45;;;;;;;3.63;1.60;;;;;;;28.57;40.77;97286.53;5095723;28;20035;-27
2022/07/13 04:15:12;;;;;;;2.03;1.70;;;;;;;28.59;40.83;97290.31;5095492;28;20047;-27
2022/07/13 04:17:38;;;;;;;2.03;1.88;;;;;;;28.52;40.63;97293.69;5095634;28;20024;-27
2022/07/13 04:20:05;;;;;;;2.80;1.77;;;;;;;28.56;40.44;97296.19;5094626;28;20032;-27
2022/07/13 04:22:30;;;;;;;1.52;1.42;;;;;;;28.50;41.00;97295.50;5095549;28;20105;-27
2022/07/13 04:24:55;;;;;;;2.47;1.90;;;;;;;28.50;40.82;97296.25;5095488;28;20059;-27
2022/07/13 04:27:21;;;;;;;1.98;1.75;;;;;;;28.52;40.40;97302.06;5095640;28;20016;-27
2022/07/13 04:29:47;;;;;;;1.80;1.70;;;;;;;28.53;40.60;97297.25;5095492;28;20024;-27
2022/07/13 04:32:12;;;;;;;2.40;1.73;;;;;;;28.55;40.27;97292.66;5095419;28;20023;-27
2022/07/13 04:34:38;;;;;;;2.05;1.83;;;;;;;28.47;40.27;97296.53;5095144;28;20058;-27
2022/07/13 04:37:04;;;;;;;3.50;1.80;;;;;;;28.46;40.06;97290.22;5094981;28;20115;-27
2022/07/13 04:39:29;;;;;;;1.95;1.60;;;;;;;28.53;40.17;97292.41;5095261;28;20099;-28
2022/07/13 04:41:55;;;;;;;2.15;1.90;;;;;;;28.47;40.06;97296.53;5095174;28;20052;-27
2022/07/13 04:44:20;;;;;;;2.72;1.63;;;;;;;28.45;40.28;97293.53;5095076;28;20077;-27
2022/07/13 04:46:46;;;;;;;2.03;1.85;;;;;;;28.46;40.03;97295.03;5095292;28;20414;-27
2022/07/13 04:49:12;;;;;;;2.08;1.70;;;;;;;28.56;40.21;97301.78;5093872;28;20381;-29
2022/07/13 04:51:37;;;;;;;3.63;1.80;;;;;;;28.48;40.18;97300.84;5095200;28;20016;-29
2022/07/13 04:54:03;;;;;;;3.90;1.67;;;;;;;28.45;39.94;97310.25;5095080;28;20458;-27
2022/07/13 04:56:28;;;;;;;1.80;1.70;;;;;;;28.41;40.14;97307.03;5095020;28;20031;-27
2022/07/13 04:58:54;;;;;;;2.17;1.52;;;;;;;28.44;39.98;97311.53;5094751;28;20028;-27
2022/07/13 05:01:20;;;;;;;1.77;1.67;;;;;;;28.46;39.94;97314.56;5094777;28;20080;-27
2022/07/13 05:03:45;;;;;;;1.77;1.67;;;;;;;28.43;40.08;97307.28;5094591;28;20023;-27
2022/07/13 05:06:13;;;;;;;6.82;2.15;;;;;;;28.46;40.08;97315.31;5094750;28;20020;-28
2022/07/13 05:08:39;;;;;;;2.35;2.13;;;;;;;28.43;39.81;97319.19;5094596;28;20474;-27
2022/07/13 05:11:05;;;;;;;2.13;1.67;;;;;;;28.42;39.86;97305.75;5091424;28;20024;-27
2022/07/13 05:13:31;;;;;;;2.28;1.73;;;;;;;28.41;39.79;97320.97;5082180;28;20025;-27
2022/07/13 05:15:57;;;;;;;2.65;1.88;;;;;;;28.39;39.86;97324.28;5072306;28;20063;-27
2022/07/13 05:18:22;;;;;;;2.10;1.75;;;;;;;28.43;39.66;97318.44;5084440;28;20051;-27
2022/07/13 05:20:49;;;;;;;2.75;1.70;;;;;;;28.41;39.93;97315.41;5092289;28;20036;-27
2022/07/13 05:23:14;;;;;;;2.60;2.35;;;;;;;28.39;39.85;97324.28;5091990;28;20446;-27
2022/07/13 05:25:40;;;;;;;1.85;1.63;;;;;;;28.35;39.80;97323.06;5090806;28;20110;-27
2022/07/13 05:28:05;;;;;;;2.42;1.98;;;;;;;28.41;39.80;97320.97;5092114;28;20058;-28
2022/07/13 05:30:31;;;;;;;2.03;1.80;;;;;;;28.42;39.92;97334.41;5077616;28;20764;-27
2022/07/13 05:32:56;;;;;;;3.53;1.90;;;;;;;28.42;39.92;97333.66;5071806;28;20117;-27
2022/07/13 05:35:22;;;;;;;2.20;1.70;;;;;;;28.38;39.67;97335.97;5071577;28;20020;-27
2022/07/13 05:37:47;;;;;;;1.90;1.70;;;;;;;28.36;40.02;97342.06;5071829;28;20103;-27
2022/07/13 05:40:13;;;;;;;2.63;1.75;;;;;;;28.40;39.67;97345.34;5067070;28;20029;-28
2022/07/13 05:42:39;;;;;;;4.28;2.13;;;;;;;28.41;39.78;97352.44;5071854;28;20107;-26
2022/07/13 05:45:05;;;;;;;7.70;2.50;;;;;;;28.42;39.64;97356.72;5071824;28;20024;-26
2022/07/13 05:47:30;;;;;;;4.55;2.20;;;;;;;28.45;39.93;97360.47;5071239;28;20024;-27
2022/07/13 05:49:55;;;;;;;2.65;2.00;;;;;;;28.39;39.53;97362.59;5071721;28;20020;-26
2022/07/13 05:52:21;;;;;;;3.33;1.77;;;;;;;28.45;39.44;97368.84;5071626;28;20031;-27
2022/07/13 05:54:46;;;;;;;3.28;1.77;;;;;;;28.36;39.74;97363.63;5071650;28;20386;-26
2022/07/13 05:57:12;;;;;;;4.28;1.95;;;;;;;28.37;39.54;97371.47;5071790;28;20025;-26
2022/07/13 05:59:37;;;;;;;3.95;1.80;;;;;;;28.45;39.56;97377.22;5071861;28;20382;-26
2022/07/13 06:02:03;;;;;;;2.80;1.92;;;;;;;28.48;39.62;97376.19;5072495;28;20028;-26
2022/07/13 06:04:28;;;;;;;2.70;1.90;;;;;;;28.35;39.77;97374.03;5073014;28;20471;-26
2022/07/13 06:06:54;;;;;;;3.78;1.88;;;;;;;28.32;39.61;97371.53;5072972;28;20052;-26
2022/07/13 06:09:19;;;;;;;2.00;1.80;;;;;;;28.31;39.56;97373.59;5072803;28;20441;-26
2022/07/13 06:11:46;;;;;;;6.10;2.03;;;;;;;28.26;39.56;97379.97;5072858;28;20024;-26
2022/07/13 06:14:13;;;;;;;2.45;2.10;;;;;;;28.29;39.51;97380.97;5072664;28;20053;-26
2022/07/13 06:16:39;;;;;;;2.00;1.80;;;;;;;28.25;39.63;97381.25;5073032;28;20033;-26
2022/07/13 06:19:04;;;;;;;2.25;1.75;;;;;;;28.24;39.58;97391.66;5073225;28;20082;-26
2022/07/13 06:21:31;;;;;;;2.45;1.77;;;;;;;28.23;39.50;97392.16;5073177;28;20024;-27
2022/07/13 06:23:56;;;;;;;4.85;1.85;;;;;;;28.27;39.45;97387.06;5073189;28;20023;-27
2022/07/13 06:26:22;;;;;;;1.90;1.65;;;;;;;28.31;39.58;97384.75;5073137;28;20025;-26
2022/07/13 06:28:48;;;;;;;1.98;1.70;;;;;;;28.31;39.39;97390.34;5073069;28;20108;-27
2022/07/13 06:31:13;;;;;;;2.10;1.92;;;;;;;28.29;39.55;97386.53;5073251;28;20024;-26
2022/07/13 06:33:41;;;;;;;1.70;1.58;;;;;;;28.34;39.28;97385.72;5073329;28;20082;-28
2022/07/13 06:36:07;;;;;;;3.90;1.80;;;;;;;28.31;39.57;97384.00;5072962;28;20051;-26
2022/07/13 06:38:33;;;;;;;1.98;1.80;;;;;;;28.34;39.28;97382.94;5073475;28;20092;-26
2022/07/13 06:40:58;;;;;;;3.22;1.70;;;;;;;28.33;39.26;97384.19;5073142;28;20554;-26
2022/07/13 06:43:25;;;;;;;2.28;1.90;;;;;;;28.33;39.18;97390.53;5074630;28;20035;-26
2022/07/13 06:45:50;;;;;;;3.80;1.80;;;;;;;28.28;39.70;97388.56;5077050;28;20024;-26
2022/07/13 06:48:16;;;;;;;3.28;1.88;;;;;;;28.30;39.36;97388.06;5077013;28;20531;-26
2022/07/13 06:50:41;;;;;;;4.65;1.73;;;;;;;28.32;39.64;97388.28;5076995;28;20099;-26
2022/07/13 06:53:07;;;;;;;3.78;1.60;;;;;;;28.16;39.91;97389.94;5077343;28;20481;-26
2022/07/13 06:55:34;;;;;;;6.07;1.70;;;;;;;28.19;39.68;97394.47;5077195;28;20382;-27
2022/07/13 06:57:59;;;;;;;2.45;1.60;;;;;;;28.24;39.39;97390.88;5076787;28;20498;-26
2022/07/13 07:00:26;;;;;;;3.40;1.90;;;;;;;28.17;39.29;97395.00;5076745;28;20028;-27
2022/07/13 07:02:52;;;;;;;5.07;1.60;;;;;;;28.12;39.59;97395.78;5076886;28;20481;-26
2022/07/13 07:05:17;;;;;;;1.70;1.60;;;;;;;28.20;39.64;97396.00;5076816;28;20055;-26
2022/07/13 07:07:43;;;;;;;2.67;1.92;;;;;;;28.29;39.49;97406.81;5086321;28;20044;-26
2022/07/13 07:10:09;;;;;;;2.10;1.58;;;;;;;28.26;39.35;97407.88;5094256;28;20032;-26
2022/07/13 07:12:35;;;;;;;3.40;1.85;;;;;;;28.17;39.21;97402.59;5094894;28;20023;-26
2022/07/13 07:15:01;;;;;;;1.77;1.55;;;;;;;28.02;39.81;97413.38;5076543;28;20036;-28
2022/07/13 07:17:27;;;;;;;1.88;1.50;;;;;;;28.12;39.25;97408.97;5076603;28;20020;-26
2022/07/13 07:19:58;;;;;;;1.50;1.40;;;;;;;28.24;39.25;97411.19;5076466;28;20047;-26
2022/07/13 07:22:24;;;;;;;2.15;1.67;;;;;;;28.16;39.38;97401.84;5076400;28;20020;-26
2022/07/13 07:24:50;;;;;;;2.00;1.55;;;;;;;28.23;39.38;97406.88;5076417;28;20388;-26
2022/07/13 07:27:16;;;;;;;2.42;1.70;;;;;;;28.05;39.54;97417.94;5076396;28;20470;-26
2022/07/13 07:29:42;;;;;;;1.92;1.70;;;;;;;28.03;39.62;97412.13;5096719;28;20034;-26
2022/07/13 07:32:07;;;;;;;1.88;1.55;;;;;;;28.07;39.21;97412.56;5096551;28;20470;-26
2022/07/13 07:34:33;;;;;;;1.83;1.73;;;;;;;28.24;38.80;97408.38;5096513;28;20020;-26
2022/07/13 07:36:59;;;;;;;1.70;1.60;;;;;;;28.20;38.86;97410.69;5096711;28;20446;-27
2022/07/13 07:39:25;;;;;;;2.60;1.65;;;;;;;28.03;38.95;97414.91;5096282;28;20093;-26
2022/07/13 07:41:51;;;;;;;2.35;1.70;;;;;;;28.01;39.34;97423.03;5096298;28;20081;-26
2022/07/13 07:44:18;;;;;;;1.80;1.70;;;;;;;28.14;39.22;97417.59;5094853;28;20024;-26
2022/07/13 07:46:44;;;;;;;1.80;1.50;;;;;;;27.78;39.43;97425.25;5096362;28;20076;-26
2022/07/13 07:49:10;;;;;;;2.42;1.48;;;;;;;27.98;38.98;97426.84;5096169;28;20019;-27
2022/07/13 07:51:35;;;;;;;2.60;1.42;;;;;;;28.06;38.94;97430.59;5096088;28;20462;-26
2022/07/13 07:54:01;;;;;;;2.47;1.40;;;;;;;28.17;38.75;97431.25;5095450;28;20063;-26
2022/07/13 07:56:26;;;;;;;1.48;1.38;;;;;;;28.19;39.10;97425.91;5093822;28;20474;-26
2022/07/13 07:58:52;;;;;;;1.85;1.48;;;;;;;27.98;38.74;97433.19;5095677;28;20051;-26
2022/07/13 08:01:17;;;;;;;3.35;1.60;;;;;;;28.04;38.88;97427.56;5096051;28;20035;-26
2022/07/13 08:03:43;;;;;;;2.95;1.83;;;;;;;27.87;39.14;97436.06;5095840;28;20024;-26
2022/07/13 08:06:08;;;;;;;2.53;1.73;;;;;;;28.06;39.08;97436.94;5095614;28;20381;-26
2022/07/13 08:08:34;;;;;;;2.83;1.80;;;;;;;27.98;39.07;97440.78;5095424;28;20054;-26
2022/07/13 08:11:01;;;;;;;3.05;1.63;;;;;;;28.11;39.06;97429.78;5095872;28;20057;-26
2022/07/13 08:13:27;;;;;;;2.55;1.60;;;;;;;28.20;38.74;97435.03;5095539;28;20118;-26
2022/07/13 08:15:52;;;;;;;2.25;1.92;;;;;;;27.89;39.57;97436.31;5093806;28;20106;-26
2022/07/13 08:18:18;;;;;;;1.48;1.38;;;;;;;27.77;39.29;97432.09;5092020;28;20032;-27
2022/07/13 08:20:44;;;;;;;2.72;1.70;;;;;;;27.09;41.10;97442.06;5094997;28;20028;-29
2022/07/13 08:25:53;;;;;;;2.17;1.73;;;;;;;27.90;39.51;97437.81;5095841;28;20547;-29
2022/07/13 08:28:19;;;;;;;4.30;1.60;;;;;;;27.92;39.24;97443.63;5095659;28;20028;-29
2022/07/13 08:30:45;;;;;;;3.85;1.75;;;;;;;27.97;39.17;97433.69;5095268;28;20120;-29
2022/07/13 08:33:10;;;;;;;4.90;1.67;;;;;;;27.83;39.39;97438.34;5095204;28;20484;-29
2022/07/13 08:38:35;;;;;;;2.20;1.75;;;;;;;27.60;39.89;97432.19;5095279;28;20077;-29
2022/07/13 08:41:01;;;;;;;2.05;1.60;;;;;;;27.55;39.81;97424.63;5093774;28;20020;-28
2022/07/13 08:43:27;;;;;;;1.60;1.45;;;;;;;27.71;39.57;97428.56;5095115;28;20024;-29
2022/07/13 08:45:53;;;;;;;2.28;1.73;;;;;;;27.75;39.59;97432.59;5095188;28;20027;-29
2022/07/13 08:48:25;;;;;;;3.15;1.92;;;;;;;27.95;39.12;97437.00;5095112;28;20488;-30
2022/07/13 08:50:50;;;;;;;1.73;1.63;;;;;;;27.70;39.33;97438.19;5094992;28;20020;-28
2022/07/13 08:53:16;;;;;;;1.95;1.63;;;;;;;27.64;39.11;97441.03;5094786;28;20032;-29
2022/07/13 08:55:42;;;;;;;1.60;1.50;;;;;;;27.74;39.26;97436.66;5094723;28;20020;-28
2022/07/13 08:58:09;;;;;;;2.05;1.45;;;;;;;27.82;38.86;97436.84;5094858;28;20381;-28
2022/07/13 09:00:35;;;;;;;1.85;1.50;;;;;;;27.33;40.17;97436.63;5095077;28;20531;-28
2022/07/13 09:03:00;;;;;;;1.65;1.40;;;;;;;27.29;39.42;97441.72;5094678;28;20035;-29
2022/07/13 09:05:26;;;;;;;2.05;1.60;;;;;;;27.62;39.41;97440.78;5094594;28;20048;-29
2022/07/13 09:08:06;;;;;;;2.92;1.83;;;;;;;27.62;39.01;97434.47;5094381;28;20465;-28
2022/07/13 09:10:32;;;;;;;4.43;2.13;;;;;;;27.63;38.79;97441.56;5094733;28;20016;-29
2022/07/13 09:12:58;;;;;;;1.70;1.52;;;;;;;27.63;39.17;97445.09;5094561;28;20028;-28
2022/07/13 09:15:23;;;;;;;3.50;2.08;;;;;;;27.91;38.45;97442.13;5094257;28;20024;-30
2022/07/13 09:17:49;;;;;;;1.70;1.50;;;;;;;27.85;38.06;97446.97;5094261;28;20115;-29
2022/07/13 09:20:15;;;;;;;3.30;2.03;;;;;;;27.94;38.13;97441.09;5090439;28;20093;-28
2022/07/13 09:22:57;;;;;;;4.68;2.13;;;;;;;27.90;37.69;97440.59;5088486;28;20027;-28
2022/07/13 09:25:27;;;;;;;4.05;1.70;;;;;;;27.95;38.23;97442.56;5094686;28;20016;-29
2022/07/13 09:27:53;;;;;;;2.00;1.40;;;;;;;27.89;35.87;97441.88;5094279;28;20048;-30
2022/07/13 09:30:28;;;;;;;3.67;1.35;;;;;;;27.90;36.06;97435.03;5094292;28;20432;-29
2022/07/13 09:32:54;;;;;;;2.78;1.48;;;;;;;27.97;36.66;97440.03;5094178;28;20026;-28
2022/07/13 09:35:21;;;;;;;2.28;1.40;;;;;;;28.04;36.73;97441.50;5094022;28;20051;-30
2022/07/13 09:37:47;;;;;;;1.63;1.52;;;;;;;28.06;37.02;97436.94;5094219;28;20055;-29
2022/07/13 09:40:17;;;;;;;2.28;1.55;;;;;;;28.14;36.65;97432.28;5093863;28;20051;-30
2022/07/13 09:42:44;;;;;;;2.30;1.40;;;;;;;27.98;36.36;97435.97;5093828;28;20043;-30
2022/07/13 09:47:58;;;;;;;1.85;1.40;;;;;;;27.81;32.92;97427.00;5093962;28;20027;-29
2022/07/13 09:50:38;;;;;;;3.05;1.50;;;;;;;27.93;36.21;97431.22;5094203;28;20054;-30
2022/07/13 09:53:23;;;;;;;3.45;1.80;;;;;;;28.03;35.50;97426.81;5093622;28;20024;-28
2022/07/13 09:55:51;;;;;;;1.90;1.40;;;;;;;28.12;35.50;97434.84;5093829;28;20405;-30
2022/07/13 09:58:22;;;;;;;1.85;1.63;;;;;;;28.13;35.65;97433.56;5093925;28;20020;-30
2022/07/13 10:00:49;;;;;;;4.25;1.50;;;;;;;28.12;35.04;97429.25;5093638;28;20020;-29
2022/07/13 10:03:14;;;;;;;2.85;1.33;;;;;;;28.06;35.31;97436.94;5093863;28;20028;-29
2022/07/13 10:05:40;;;;;;;1.98;1.30;;;;;;;28.14;34.82;97432.28;5093386;28;20119;-29
2022/07/13 10:08:08;;;;;;;2.22;1.50;;;;;;;28.17;34.13;97434.03;5093330;28;20071;-28
2022/07/13 10:10:33;;;;;;;1.30;1.20;;;;;;;27.93;35.28;97424.88;5093191;28;20052;-30
2022/07/13 10:13:05;;;;;;;1.60;1.50;;;;;;;27.85;35.89;97439.34;5093582;28;20487;-29
2022/07/13 10:15:31;;;;;;;1.48;1.38;;;;;;;27.90;35.36;97429.44;5093001;28;20040;-29
2022/07/13 10:18:00;;;;;;;1.45;1.35;;;;;;;28.04;35.26;97433.91;5091756;28;20525;-29
2022/07/13 10:20:26;;;;;;;2.42;1.20;;;;;;;27.96;32.73;97424.56;5092884;28;20032;-29
2022/07/13 10:22:52;;;;;;;1.27;1.17;;;;;;;28.05;33.70;97423.50;5093825;28;20090;-30
2022/07/13 10:25:18;;;;;;;1.80;1.10;;;;;;;27.81;33.96;97427.75;5093552;28;20020;-29
2022/07/13 10:27:44;;;;;;;2.22;1.23;;;;;;;27.98;33.65;97430.38;5093347;28;20020;-30
2022/07/13 10:30:15;;;;;;;1.50;1.23;;;;;;;28.11;32.98;97427.75;5093464;28;20023;-29
2022/07/13 10:32:42;;;;;;;1.27;1.13;;;;;;;28.20;33.17;97426.66;5093313;28;20059;-28
2022/07/13 10:35:13;;;;;;;2.65;1.17;;;;;;;28.22;32.68;97422.09;5093324;28;20099;-29
2022/07/13 10:37:57;;;;;;;1.35;1.25;;;;;;;28.21;32.66;97420.56;5093295;28;20024;-30
2022/07/13 10:40:23;;;;;;;4.30;1.20;;;;;;;28.20;33.23;97413.47;5093131;28;20021;-29
2022/07/13 10:42:59;;;;;;;2.20;1.15;;;;;;;28.23;32.98;97411.69;5093579;28;20035;-29
2022/07/13 10:45:31;;;;;;;1.65;1.30;;;;;;;28.21;32.70;97411.44;5093263;28;20031;-29
2022/07/13 10:47:57;;;;;;;4.00;0.93;;;;;;;28.20;32.75;97396.00;5093193;28;20024;-29
2022/07/13 10:50:23;;;;;;;1.83;1.10;;;;;;;28.16;32.70;97401.84;5093288;28;20099;-28
2022/07/13 10:52:49;;;;;;;2.85;1.33;;;;;;;28.21;32.81;97412.22;5093364;28;20031;-31
2022/07/13 10:55:35;;;;;;;2.85;1.30;;;;;;;28.26;32.51;97404.31;5093111;28;20577;-28
2022/07/13 10:58:40;;;;;;;1.77;1.35;;;;;;;28.30;32.84;97396.44;5093177;28;20031;-30
2022/07/13 11:01:30;;;;;;;2.60;1.20;;;;;;;28.19;31.83;97406.41;5092682;28;20040;-30
2022/07/13 11:03:56;;;;;;;1.92;1.30;;;;;;;28.22;31.24;97405.34;5093018;28;20020;-29
2022/07/13 11:06:26;;;;;;;3.38;1.08;;;;;;;28.17;32.07;97391.44;5093438;28;20024;-29
2022/07/13 11:09:12;;;;;;;2.08;1.40;;;;;;;28.20;32.46;97393.97;5092868;28;20052;-29
2022/07/13 11:11:45;;;;;;;2.53;1.40;;;;;;;28.27;32.45;97394.69;5093056;28;20386;-29
2022/07/13 11:14:35;;;;;;;1.33;1.10;;;;;;;28.30;32.44;97391.59;5093101;28;20105;-30
2022/07/13 11:17:14;;;;;;;3.20;1.10;;;;;;;28.28;31.88;97388.56;5093087;28;20157;-30
2022/07/13 11:19:53;;;;;;;1.48;1.17;;;;;;;28.29;32.16;97394.91;5092787;28;20024;-28
2022/07/13 11:22:23;;;;;;;2.10;1.30;;;;;;;28.34;32.00;97380.13;5092924;28;20107;-29
2022/07/13 11:25:31;;;;;;;1.20;1.10;;;;;;;28.32;31.95;97389.03;5092832;28;20035;-29
2022/07/13 11:28:28;;;;;;;1.65;1.27;;;;;;;28.28;32.09;97385.03;5092354;28;20466;-29
2022/07/13 11:30:57;;;;;;;2.03;1.40;;;;;;;28.20;32.50;97374.44;5096704;28;20074;-29
2022/07/13 11:33:23;;;;;;;1.63;1.38;;;;;;;28.23;32.51;97375.44;5096777;28;20027;-29
2022/07/13 11:35:49;;;;;;;1.38;1.20;;;;;;;28.27;32.50;97375.16;5096185;28;20032;-29
2022/07/13 11:38:16;;;;;;;1.30;1.20;;;;;;;28.27;32.57;97375.16;5096349;28;20044;-28
2022/07/13 11:40:43;;;;;;;2.92;1.30;;;;;;;28.19;32.85;97372.91;5096223;28;20028;-28
2022/07/13 11:43:09;;;;;;;4.53;1.25;;;;;;;28.27;32.50;97370.34;5095044;28;20024;-30